createdAt,value
2023-12-12T00:01:29.462Z,3.80
2023-12-12T00:03:58.060Z,3.63
2023-12-12T00:06:27.658Z,3.77
2023-12-12T00:09:00.483Z,3.53
2023-12-12T00:11:30.214Z,2.60
2023-12-12T00:14:01.501Z,3.33
2023-12-12T00:16:32.298Z,5.17
2023-12-12T00:19:04.762Z,1.90
2023-12-12T00:21:45.431Z,1.90
2023-12-12T00:24:18.829Z,3.67
2023-12-12T00:26:50.235Z,3.60
2023-12-12T00:29:19.525Z,1.90
2023-12-12T00:31:50.445Z,2.07
2023-12-12T00:34:23.619Z,3.23
2023-12-12T00:36:54.336Z,5.37
2023-12-12T00:39:28.860Z,7.60
2023-12-12T00:42:06.964Z,8.13
2023-12-12T00:44:36.329Z,1.90
2023-12-12T00:47:08.908Z,5.03
2023-12-12T00:49:49.975Z,4.97
2023-12-12T00:52:22.016Z,7.10
2023-12-12T00:55:02.365Z,5.23
2023-12-12T00:57:46.801Z,3.87
2023-12-12T01:00:25.229Z,8.30
2023-12-12T01:03:00.555Z,4.10
2023-12-12T01:05:29.688Z,7.13
2023-12-12T01:08:01.876Z,2.67
2023-12-12T01:10:30.879Z,3.40
2023-12-12T01:13:11.386Z,5.37
2023-12-12T01:15:42.930Z,5.77
2023-12-12T01:18:14.091Z,2.60
2023-12-12T01:20:52.620Z,6.27
2023-12-12T01:23:22.839Z,7.83
2023-12-12T01:26:00.326Z,3.10
2023-12-12T01:28:31.404Z,10.67
2023-12-12T01:31:08.748Z,6.00
2023-12-12T01:33:55.635Z,4.30
2023-12-12T01:36:24.839Z,3.43
2023-12-12T01:38:58.829Z,3.97
2023-12-12T01:41:30.769Z,3.90
2023-12-12T01:44:00.532Z,3.70
2023-12-12T01:46:38.755Z,2.80
2023-12-12T01:49:12.784Z,7.10
2023-12-12T01:51:45.262Z,2.83
2023-12-12T01:54:15.984Z,3.90
2023-12-12T01:56:54.357Z,2.87
2023-12-12T01:59:26.882Z,6.27
2023-12-12T02:01:56.488Z,5.50
2023-12-12T02:04:31.992Z,1.90
2023-12-12T02:07:02.570Z,6.20
2023-12-12T02:09:41.409Z,6.00
2023-12-12T02:12:11.823Z,3.93
2023-12-12T02:14:47.256Z,5.80
2023-12-12T02:17:23.317Z,5.63
2023-12-12T02:20:02.662Z,6.23
2023-12-12T02:22:36.294Z,4.90
2023-12-12T02:25:10.876Z,2.80
2023-12-12T02:27:42.978Z,1.40
2023-12-12T02:30:14.601Z,7.50
2023-12-12T02:32:45.861Z,5.57
2023-12-12T02:35:15.606Z,4.93
2023-12-12T02:37:56.010Z,6.70
2023-12-12T02:40:26.282Z,5.17
2023-12-12T02:42:59.650Z,2.00
2023-12-12T02:45:32.214Z,4.97
2023-12-12T02:48:01.134Z,2.87
2023-12-12T02:50:33.029Z,3.33
2023-12-12T02:53:15.099Z,2.40
2023-12-12T02:55:47.713Z,4.03
2023-12-12T02:58:17.672Z,1.47
2023-12-12T03:00:52.720Z,4.60
2023-12-12T03:03:25.351Z,2.27
2023-12-12T03:05:57.235Z,5.70
2023-12-12T03:08:44.879Z,4.87
2023-12-12T03:11:19.605Z,4.80
2023-12-12T03:13:53.864Z,5.20
2023-12-12T03:16:26.223Z,6.10
2023-12-12T03:18:59.937Z,5.07
2023-12-12T03:21:31.757Z,3.00
2023-12-12T03:24:01.670Z,3.23
2023-12-12T03:26:37.102Z,5.70
2023-12-12T03:29:13.475Z,9.27
2023-12-12T03:31:44.382Z,7.17
2023-12-12T03:34:29.066Z,9.50
2023-12-12T03:37:00.841Z,5.00
2023-12-12T03:39:32.081Z,4.80
2023-12-12T03:42:10.800Z,6.13
2023-12-12T03:44:43.786Z,8.03
2023-12-12T03:47:24.094Z,4.07
2023-12-12T03:49:54.611Z,4.20
2023-12-12T03:52:30.750Z,8.27
2023-12-12T03:55:12.614Z,5.67
2023-12-12T03:57:45.791Z,8.47
2023-12-12T04:00:17.968Z,4.27
2023-12-12T04:02:58.294Z,2.60
2023-12-12T04:05:42.715Z,9.93
2023-12-12T04:08:13.259Z,7.27
2023-12-12T04:10:45.679Z,13.37
2023-12-12T04:13:22.750Z,9.97
2023-12-12T04:15:54.729Z,3.10
2023-12-12T04:18:36.701Z,2.87
2023-12-12T04:21:14.619Z,9.73
2023-12-12T04:23:47.052Z,10.27
2023-12-12T04:26:20.478Z,4.53
2023-12-12T04:28:50.634Z,12.50
2023-12-12T04:31:21.668Z,8.73
2023-12-12T04:33:59.186Z,4.20
2023-12-12T04:36:31.238Z,7.43
2023-12-12T04:39:00.312Z,5.63
2023-12-12T04:41:41.157Z,7.60
2023-12-12T04:44:10.798Z,7.33
2023-12-12T04:46:42.630Z,11.13
2023-12-12T04:49:14.985Z,6.03
2023-12-12T04:51:46.519Z,4.90
2023-12-12T04:54:16.198Z,2.40
2023-12-12T04:56:54.040Z,7.20
2023-12-12T04:59:31.045Z,4.33
2023-12-12T05:02:00.321Z,5.60
2023-12-12T05:04:32.103Z,5.10
2023-12-12T05:07:01.385Z,5.60
2023-12-12T05:09:36.150Z,7.17
2023-12-12T05:12:10.150Z,5.20
2023-12-12T05:14:41.393Z,4.80
2023-12-12T05:17:11.631Z,4.70
2023-12-12T05:19:54.317Z,9.30
2023-12-12T05:22:28.438Z,5.10
2023-12-12T05:24:57.808Z,4.23
2023-12-12T05:27:32.382Z,4.30
2023-12-12T05:30:06.265Z,7.30
2023-12-12T05:32:43.600Z,7.60
2023-12-12T05:35:21.099Z,3.70
2023-12-12T05:37:52.447Z,7.33
2023-12-12T05:40:29.671Z,3.07
2023-12-12T05:43:00.226Z,4.87
2023-12-12T05:45:38.085Z,7.63
2023-12-12T05:48:13.511Z,6.63
2023-12-12T05:50:59.098Z,7.60
2023-12-12T05:53:28.427Z,6.00
2023-12-12T05:56:06.530Z,8.40
2023-12-12T05:58:51.060Z,5.10
2023-12-12T06:01:28.533Z,5.40
2023-12-12T06:04:06.198Z,5.50
2023-12-12T06:06:51.327Z,4.30
2023-12-12T06:09:21.133Z,5.03
2023-12-12T06:12:00.713Z,3.57
2023-12-12T06:14:31.561Z,6.53
2023-12-12T06:17:08.661Z,4.63
2023-12-12T06:19:43.317Z,6.10
2023-12-12T06:22:26.155Z,5.77
2023-12-12T06:24:57.137Z,4.27
2023-12-12T06:27:33.910Z,8.03
2023-12-12T06:30:20.646Z,6.93
2023-12-12T06:32:51.931Z,7.70
2023-12-12T06:35:24.238Z,10.27
2023-12-12T06:38:01.280Z,7.57
2023-12-12T06:40:38.713Z,4.17
2023-12-12T06:43:12.997Z,10.50
2023-12-12T06:45:48.366Z,7.20
2023-12-12T06:48:25.444Z,4.77
2023-12-12T06:50:59.173Z,3.57
2023-12-12T06:53:30.794Z,6.23
2023-12-12T06:56:02.105Z,9.63
2023-12-12T06:58:39.513Z,10.10
2023-12-12T07:01:34.455Z,7.27
2023-12-12T07:04:05.603Z,5.80
2023-12-12T07:06:36.351Z,6.90
2023-12-12T07:09:09.729Z,8.50
2023-12-12T07:11:40.468Z,8.40
2023-12-12T07:14:10.374Z,4.33
2023-12-12T07:16:49.646Z,6.03
2023-12-12T07:19:26.418Z,9.63
2023-12-12T07:21:59.765Z,6.23
2023-12-12T07:24:40.289Z,8.30
2023-12-12T07:27:13.737Z,9.90
2023-12-12T07:29:46.878Z,8.87
2023-12-12T07:32:30.520Z,7.13
2023-12-12T07:34:59.287Z,5.20
2023-12-12T07:37:31.678Z,9.10
2023-12-12T07:40:07.912Z,12.37
2023-12-12T07:42:44.265Z,11.40
2023-12-12T07:45:16.583Z,6.27
2023-12-12T07:48:00.502Z,8.00
2023-12-12T07:50:34.213Z,5.63
2023-12-12T07:53:06.213Z,12.03
2023-12-12T07:55:37.959Z,11.50
2023-12-12T07:58:19.324Z,7.80
2023-12-12T08:00:49.864Z,13.23
2023-12-12T08:03:28.826Z,6.13
2023-12-12T08:05:58.944Z,6.60
2023-12-12T08:08:28.928Z,9.93
2023-12-12T08:10:59.999Z,10.80
2023-12-12T08:13:30.690Z,8.17
2023-12-12T08:16:04.465Z,9.03
2023-12-12T08:18:49.179Z,7.30
2023-12-12T08:21:21.442Z,11.00
2023-12-12T08:23:51.050Z,9.10
2023-12-12T08:26:26.707Z,8.33
2023-12-12T08:29:04.193Z,12.60
2023-12-12T08:31:40.656Z,10.40
2023-12-12T08:34:16.216Z,6.43
2023-12-12T08:36:46.947Z,6.07
2023-12-12T08:39:17.598Z,8.37
2023-12-12T08:41:48.549Z,13.67
2023-12-12T08:44:17.087Z,6.47
2023-12-12T08:46:45.624Z,8.40
2023-12-12T08:49:25.204Z,9.47
2023-12-12T08:51:55.562Z,6.23
2023-12-12T08:54:32.631Z,8.00
2023-12-12T08:57:05.760Z,9.03
2023-12-12T08:59:35.498Z,16.13
2023-12-12T09:02:20.030Z,7.40
2023-12-12T09:04:55.986Z,8.17
2023-12-12T09:07:37.972Z,4.23
2023-12-12T09:10:09.452Z,5.90
2023-12-12T09:12:38.704Z,10.40
2023-12-12T09:15:19.504Z,7.93
2023-12-12T09:18:00.878Z,5.43
2023-12-12T09:20:38.167Z,4.80
2023-12-12T09:23:10.005Z,7.23
2023-12-12T09:25:48.239Z,7.63
2023-12-12T09:28:19.390Z,2.67
2023-12-12T09:30:49.767Z,5.70
2023-12-12T09:33:21.628Z,7.77
2023-12-12T09:36:06.923Z,8.23
2023-12-12T09:38:43.797Z,6.87
2023-12-12T09:41:25.289Z,7.90
2023-12-12T09:44:02.629Z,7.70
2023-12-12T09:46:42.676Z,6.20
2023-12-12T09:49:20.450Z,5.03
2023-12-12T09:51:55.972Z,11.63
2023-12-12T09:54:26.036Z,7.23
2023-12-12T09:56:57.980Z,11.43
2023-12-12T09:59:32.002Z,6.50
2023-12-12T10:02:21.970Z,13.23
2023-12-12T10:04:55.592Z,7.60
2023-12-12T10:07:39.599Z,12.93
2023-12-12T10:10:20.649Z,11.80
2023-12-12T10:12:52.373Z,37.50
2023-12-12T10:15:32.100Z,12.10
2023-12-12T10:18:02.594Z,7.60
2023-12-12T10:20:39.058Z,11.17
2023-12-12T10:23:16.409Z,9.60
2023-12-12T10:25:53.198Z,12.47
2023-12-12T10:28:29.784Z,8.27
2023-12-12T10:31:01.634Z,7.77
2023-12-12T10:33:39.349Z,7.77
2023-12-12T10:36:29.518Z,11.03
2023-12-12T10:39:16.610Z,14.07
2023-12-12T10:42:03.663Z,11.10
2023-12-12T10:44:34.336Z,8.83
2023-12-12T10:47:19.553Z,9.77
2023-12-12T10:49:58.253Z,10.73
2023-12-12T10:52:34.929Z,7.63
2023-12-12T10:55:15.783Z,13.70
2023-12-12T10:57:58.441Z,13.60
2023-12-12T11:00:32.767Z,12.00
2023-12-12T11:03:04.866Z,11.97
2023-12-12T11:05:43.905Z,6.13
2023-12-12T11:08:14.655Z,7.60
2023-12-12T11:10:48.294Z,6.60
2023-12-12T11:13:19.513Z,10.17
2023-12-12T11:15:51.331Z,15.40
2023-12-12T11:18:22.221Z,8.53
2023-12-12T11:20:59.044Z,13.00
2023-12-12T11:23:57.669Z,12.70
2023-12-12T11:26:30.696Z,7.17
2023-12-12T11:29:02.651Z,5.67
2023-12-12T11:31:46.961Z,7.53
2023-12-12T11:34:23.821Z,15.70
2023-12-12T11:37:03.000Z,9.80
2023-12-12T11:39:41.901Z,9.60
2023-12-12T11:42:26.372Z,10.83
2023-12-12T11:44:57.992Z,9.63
2023-12-12T11:47:31.489Z,9.20
2023-12-12T11:50:37.878Z,6.03
2023-12-12T11:53:18.070Z,10.60
2023-12-12T11:55:55.813Z,12.13
2023-12-12T11:58:31.437Z,13.07
2023-12-12T12:01:03.356Z,12.37
2023-12-12T12:03:37.115Z,10.50
2023-12-12T12:06:15.302Z,11.10
2023-12-12T12:09:04.976Z,10.80
2023-12-12T12:11:41.205Z,10.40
2023-12-12T12:14:16.494Z,13.43
2023-12-12T12:16:48.379Z,6.87
2023-12-12T12:19:34.732Z,7.73
2023-12-12T12:22:09.848Z,8.83
2023-12-12T12:24:44.049Z,11.40
2023-12-12T12:27:21.541Z,10.33
2023-12-12T12:30:13.977Z,5.70
2023-12-12T12:33:00.840Z,12.27
2023-12-12T12:35:39.728Z,13.27
2023-12-12T12:38:33.068Z,14.33
2023-12-12T12:41:04.467Z,6.23
2023-12-12T12:43:36.854Z,21.53
2023-12-12T12:46:13.532Z,17.50
2023-12-12T12:48:48.045Z,17.73
2023-12-12T12:51:17.391Z,12.73
2023-12-12T12:53:51.812Z,12.80
2023-12-12T12:56:23.798Z,8.20
2023-12-12T12:58:58.061Z,15.73
2023-12-12T13:01:30.259Z,11.10
2023-12-12T13:04:08.763Z,11.07
2023-12-12T13:06:38.164Z,12.80
2023-12-12T13:09:33.568Z,15.33
2023-12-12T13:12:05.979Z,14.50
2023-12-12T13:14:36.270Z,15.80
2023-12-12T13:17:07.740Z,12.93
2023-12-12T13:19:54.460Z,21.73
2023-12-12T13:22:29.207Z,14.83
2023-12-12T13:24:59.905Z,13.07
2023-12-12T13:27:30.963Z,10.70
2023-12-12T13:29:59.245Z,14.13
2023-12-12T13:32:33.997Z,11.77
2023-12-12T13:35:09.895Z,14.13
2023-12-12T13:37:43.034Z,15.57
2023-12-12T13:40:24.077Z,9.67
2023-12-12T13:42:54.007Z,11.43
2023-12-12T13:45:35.248Z,12.50
2023-12-12T13:48:15.950Z,13.20
2023-12-12T13:51:03.405Z,10.00
2023-12-12T13:53:35.352Z,9.33
2023-12-12T13:56:13.349Z,7.00
2023-12-12T13:59:01.732Z,8.97
2023-12-12T14:01:36.668Z,14.77
2023-12-12T14:04:20.397Z,8.63
2023-12-12T14:07:00.079Z,8.57
2023-12-12T14:09:38.634Z,12.37
2023-12-12T14:12:12.624Z,8.97
2023-12-12T14:14:50.221Z,16.20
2023-12-12T14:17:33.859Z,8.73
2023-12-12T14:20:09.804Z,8.50
2023-12-12T14:22:49.778Z,10.20
2023-12-12T14:25:29.586Z,14.30
2023-12-12T14:28:02.756Z,8.97
2023-12-12T14:30:41.110Z,11.70
2023-12-12T14:33:18.723Z,11.13
2023-12-12T14:35:55.649Z,13.73
2023-12-12T14:38:35.176Z,15.93
2023-12-12T14:41:06.636Z,16.37
2023-12-12T14:43:41.100Z,17.27
2023-12-12T14:46:13.684Z,18.40
2023-12-12T14:48:47.432Z,20.50
2023-12-12T14:51:28.803Z,15.73
2023-12-12T14:54:00.487Z,13.63
2023-12-12T14:56:30.786Z,9.83
2023-12-12T14:58:59.851Z,10.47
2023-12-12T15:01:37.697Z,12.70
2023-12-12T15:04:20.136Z,11.13
2023-12-12T15:06:50.990Z,14.43
2023-12-12T15:09:23.028Z,11.13
2023-12-12T15:12:01.210Z,13.97
2023-12-12T15:14:31.792Z,7.93
2023-12-12T15:17:04.514Z,11.10
2023-12-12T15:19:35.983Z,21.70
2023-12-12T15:22:33.943Z,24.40
2023-12-12T15:25:24.559Z,15.03
2023-12-12T15:28:23.720Z,11.70
2023-12-12T15:30:54.748Z,15.60
2023-12-12T15:33:36.029Z,10.43
2023-12-12T15:36:17.488Z,9.20
2023-12-12T15:38:56.072Z,11.33
2023-12-12T15:41:26.891Z,7.27
2023-12-12T15:44:06.145Z,10.30
2023-12-12T15:47:05.452Z,6.93
2023-12-12T15:49:36.581Z,12.17
2023-12-12T15:52:14.532Z,9.17
2023-12-12T15:54:50.988Z,14.70
2023-12-12T15:57:25.771Z,7.93
2023-12-12T15:59:59.660Z,14.40
2023-12-12T16:02:37.505Z,10.70
2023-12-12T16:05:21.326Z,8.53
2023-12-12T16:08:00.248Z,7.73
2023-12-12T16:10:45.128Z,8.57
2023-12-12T16:13:16.572Z,5.50
2023-12-12T16:15:47.850Z,7.53
2023-12-12T16:18:20.894Z,8.70
2023-12-12T16:21:06.106Z,4.70
2023-12-12T16:23:36.179Z,6.93
2023-12-12T16:26:11.236Z,3.70
2023-12-12T16:28:55.101Z,8.33
2023-12-12T16:31:29.184Z,8.10
2023-12-12T16:34:00.231Z,4.37
2023-12-12T16:36:31.796Z,8.50
2023-12-12T16:39:10.535Z,8.30
2023-12-12T16:41:45.215Z,8.80
2023-12-12T16:44:23.540Z,7.70
2023-12-12T16:47:01.295Z,8.63
2023-12-12T16:49:35.775Z,7.23
2023-12-12T16:52:14.223Z,8.50
2023-12-12T16:54:51.375Z,6.13
2023-12-12T16:57:28.624Z,5.70
2023-12-12T16:59:59.532Z,11.60
2023-12-12T17:02:31.939Z,12.13
2023-12-12T17:05:06.143Z,8.17
2023-12-12T17:07:45.982Z,9.80
2023-12-12T17:10:20.092Z,12.80
2023-12-12T17:12:55.037Z,11.73
2023-12-12T17:15:34.915Z,8.60
2023-12-12T17:18:15.317Z,6.50
2023-12-12T17:20:49.916Z,9.23
2023-12-12T17:23:21.598Z,10.37
2023-12-12T17:25:55.107Z,9.80
2023-12-12T17:28:30.264Z,10.57
2023-12-12T17:31:04.716Z,8.53
2023-12-12T17:33:35.701Z,9.30
2023-12-12T17:36:21.925Z,10.20
2023-12-12T17:38:56.239Z,8.17
2023-12-12T17:41:29.166Z,9.67
2023-12-12T17:44:07.722Z,9.20
2023-12-12T17:46:45.114Z,11.40
2023-12-12T17:49:20.006Z,6.97
2023-12-12T17:51:55.910Z,16.47
2023-12-12T17:54:32.966Z,12.07
2023-12-12T17:57:05.222Z,11.43
2023-12-12T17:59:40.145Z,9.50
2023-12-12T18:02:11.485Z,15.43
2023-12-12T18:04:42.506Z,9.10
2023-12-12T18:07:17.347Z,8.97
2023-12-12T18:09:55.923Z,10.13
2023-12-12T18:12:39.756Z,8.77
2023-12-12T18:15:17.582Z,14.30
2023-12-12T18:18:01.335Z,14.63
2023-12-12T18:20:42.336Z,10.37
2023-12-12T18:23:15.558Z,9.93
2023-12-12T18:25:57.557Z,7.07
2023-12-12T18:28:28.938Z,12.07
2023-12-12T18:31:12.389Z,12.23
2023-12-12T18:33:43.796Z,12.43
2023-12-12T18:36:22.353Z,22.07
2023-12-12T18:39:00.538Z,20.47
2023-12-12T18:41:32.733Z,15.20
2023-12-12T18:44:02.362Z,14.50
2023-12-12T18:46:46.324Z,13.57
2023-12-12T18:49:19.973Z,11.30
2023-12-12T18:52:03.839Z,10.83
2023-12-12T18:54:38.822Z,14.10
2023-12-12T18:57:12.762Z,9.97
2023-12-12T18:59:45.319Z,11.50
2023-12-12T19:02:26.668Z,12.50
2023-12-12T19:05:02.996Z,11.53
2023-12-12T19:07:36.855Z,8.83
2023-12-12T19:10:13.522Z,10.30
2023-12-12T19:12:49.279Z,11.07
2023-12-12T19:15:33.504Z,14.57
2023-12-12T19:18:08.575Z,12.30
2023-12-12T19:20:59.400Z,12.67
2023-12-12T19:23:40.788Z,13.60
2023-12-12T19:26:40.415Z,12.03
2023-12-12T19:29:18.910Z,11.27
2023-12-12T19:32:02.275Z,11.70
2023-12-12T19:34:52.850Z,14.60
2023-12-12T19:37:35.698Z,13.00
2023-12-12T19:40:15.982Z,12.93
2023-12-12T19:42:49.901Z,12.57
2023-12-12T19:45:26.986Z,12.77
2023-12-12T19:48:11.579Z,12.30
2023-12-12T19:50:45.758Z,12.30
2023-12-12T19:53:33.075Z,14.93
2023-12-12T19:56:16.065Z,12.90
2023-12-12T19:58:52.169Z,11.50
2023-12-12T20:01:28.096Z,15.13
2023-12-12T20:04:03.950Z,18.70
2023-12-12T20:06:45.524Z,15.33
2023-12-12T20:09:20.075Z,15.97
2023-12-12T20:12:03.662Z,16.50
2023-12-12T20:14:47.478Z,13.77
2023-12-12T20:17:22.753Z,16.00
2023-12-12T20:19:57.627Z,18.53
2023-12-12T20:22:56.211Z,17.83
2023-12-12T20:25:36.605Z,18.33
2023-12-12T20:28:23.922Z,15.23
2023-12-12T20:34:22.127Z,15.13
2023-12-12T20:36:55.687Z,16.50
2023-12-12T20:39:54.723Z,15.53
2023-12-12T20:42:45.039Z,16.93
2023-12-12T20:45:18.953Z,16.90
2023-12-12T20:47:57.370Z,15.80
2023-12-12T20:50:47.722Z,20.07
2023-12-12T20:53:25.400Z,16.70
2023-12-12T20:56:04.812Z,15.77
2023-12-12T20:58:41.780Z,18.13
2023-12-12T21:01:27.414Z,16.80
2023-12-12T21:04:13.050Z,23.33
2023-12-12T21:06:42.935Z,19.27
2023-12-12T21:09:20.799Z,21.60
2023-12-12T21:11:53.900Z,18.27
2023-12-12T21:14:39.279Z,19.43
2023-12-12T21:17:10.371Z,18.53
2023-12-12T21:19:44.099Z,15.70
2023-12-12T21:22:28.068Z,16.27
2023-12-12T21:25:00.519Z,17.30
2023-12-12T21:27:51.411Z,17.97
2023-12-12T21:30:20.578Z,17.20
2023-12-12T21:33:04.462Z,19.20
2023-12-12T21:35:51.968Z,20.73
2023-12-12T21:38:32.873Z,16.90
2023-12-12T21:41:09.774Z,15.90
2023-12-12T21:43:43.481Z,18.83
2023-12-12T21:46:24.558Z,16.97
2023-12-12T21:48:56.736Z,19.43
2023-12-12T21:51:35.364Z,19.10
2023-12-12T21:54:16.564Z,16.10
2023-12-12T21:56:52.433Z,15.73
2023-12-12T21:59:31.563Z,18.80
2023-12-12T22:02:05.086Z,18.90
2023-12-12T22:04:42.585Z,16.10
2023-12-12T22:07:14.256Z,16.90
2023-12-12T22:09:44.915Z,19.53
2023-12-12T22:12:16.377Z,18.40
2023-12-12T22:14:52.164Z,26.03
2023-12-12T22:17:23.132Z,23.50
2023-12-12T22:20:06.100Z,19.10
2023-12-12T22:22:40.722Z,19.50
2023-12-12T22:25:11.236Z,17.90
2023-12-12T22:27:46.734Z,22.00
2023-12-12T22:30:22.612Z,20.20
2023-12-12T22:33:05.618Z,19.47
2023-12-12T22:35:36.838Z,20.73
2023-12-12T22:38:12.331Z,21.23
2023-12-12T22:40:50.951Z,21.10
2023-12-12T22:43:23.817Z,19.77
2023-12-12T22:46:01.525Z,20.00
2023-12-12T22:48:31.369Z,20.10
2023-12-12T22:51:05.006Z,21.13
2023-12-12T22:53:34.440Z,22.90
2023-12-12T22:56:04.859Z,20.63
2023-12-12T22:58:37.197Z,24.63
2023-12-12T23:01:17.781Z,20.80
2023-12-12T23:03:56.398Z,21.40
2023-12-12T23:06:29.593Z,20.80
2023-12-12T23:08:59.227Z,21.97
2023-12-12T23:11:37.913Z,21.77
2023-12-12T23:14:08.690Z,20.67
2023-12-12T23:16:57.786Z,23.23
2023-12-12T23:19:38.894Z,21.23
2023-12-12T23:22:11.610Z,19.20
2023-12-12T23:24:41.723Z,19.40
2023-12-12T23:27:21.091Z,19.40
2023-12-12T23:29:49.648Z,19.40
2023-12-12T23:32:35.860Z,19.60
2023-12-12T23:35:14.835Z,20.50
2023-12-12T23:37:48.947Z,19.30
2023-12-12T23:40:21.426Z,18.40
2023-12-12T23:42:52.163Z,25.20
2023-12-12T23:45:37.657Z,20.60
2023-12-12T23:48:23.472Z,23.10
2023-12-12T23:50:52.733Z,22.70
2023-12-12T23:53:25.127Z,22.90
2023-12-12T23:55:56.501Z,26.23
2023-12-12T23:58:28.745Z,28.07
